Aviation Digital Data Service (ADDS)

Output produced by METARs form (0551 UTC 16 February 2019)
found at http://www.aviationweather.gov/metar/data/
 
Forecast for: UUEE (MOSCOW/SHEREMET', RU)
Text: TAF UUEE 160452Z 1606/1706 30005G11MPS 9999 BKN011 TX03/1612Z TNM01/1700Z
Forecast period: 0600 to 1300 UTC 16 February 2019
Forecast type: FROM: standard forecast or significant change
Winds: from the WNW (300 degrees) at 12 MPH (10 knots; 5.1 m/s)
gusting to 24 MPH (21 knots; 10.8 m/s)
Visibility: 6 or more miles 10+ km)
Ceiling: 1100 feet AGL
Clouds: broken clouds at 1100 feet AGL
Weather: no significant weather forecast for this period
Text: BECMG 1613/1616 24006G13MPS
Forecast period: 1300 UTC 16 February 2019 to 0600 UTC 17 February 2019
Forecast type: BECOMING: Conditions expected to become as follows by 1600 UTC 16 February 2019
Winds: from the WSW (240 degrees) at 14 MPH (12 knots; 6.2 m/s)
gusting to 29 MPH (25 knots; 12.9 m/s)
Visibility: 6 or more miles 10+ km)
Ceiling: 1100 feet AGL
Clouds: broken clouds at 1100 feet AGL
Weather: no significant weather forecast for this period